Arianta — MGKU9 — position and weather

sailwx.info

Track history (hours):
 
Tides and Currents Weather Stations Pressure Air Temp Water Temp Dewpoint Dewpoint Depression Visibility Wind Speed Wind Dir Waves Ship Positions

Arianta

Last reported at 2018-Feb-22 00:54 UTC. Time now 2018-Feb-22 03:09 UTC.
Position N 14°34' W 061°06'.

Length 140 m; draft 6.5 m.

Type: Ship. MMSI: 232698000.

Date/timePositionNaut miles runAvg speedWind from/ knotsBaromVisibWave heightAir tempDewpointWater temp
2018-Feb-22 00:54N 14°34' W 061°06'510.0
2018-Feb-22 00:26N 14°35' W 061°11'710.0
2018-Feb-21 23:42N 14°39' W 061°17'128 9.3
2018-Feb-21 09:55N 16°09' W 062°51'  
2018-Feb-17 01:44N 16°57' W 063°30'56 9.6
2018-Feb-16 19:58N 16°28' W 062°41'7 9.9
2018-Feb-16 19:16N 16°25' W 062°34'3 9.8
2018-Feb-16 18:59N 16°23' W 062°32'48 9.3
2018-Feb-16 13:46N 15°59' W 061°49'310.3
2018-Feb-16 13:30N 15°57' W 061°46'10 9.9
2018-Feb-16 12:29N 15°57' W 061°36'14 8.3
2018-Feb-16 10:48N 16°10' W 061°31'2 6.0
2018-Feb-16 10:30N 16°11' W 061°32'1 1.0
2018-Feb-16 09:22N 16°12' W 061°32'0 0.2
2018-Feb-16 08:58N 16°12' W 061°32'0 0.0
2018-Feb-16 02:22N 16°12' W 061°32'0 0.0
2018-Feb-15 22:18N 16°12' W 061°32'0 0.0
2018-Feb-15 21:57N 16°12' W 061°32'0 0.0
2018-Feb-15 20:24N 16°12' W 061°32'0 0.0
2018-Feb-15 19:57N 16°12' W 061°32'0 0.0
2018-Feb-15 07:06N 16°12' W 061°32'0 0.0
2018-Feb-15 06:18N 16°12' W 061°32'0 0.0
2018-Feb-14 19:39N 16°12' W 061°32'0 0.0
2018-Feb-14 19:06N 16°12' W 061°32'0 0.1
2018-Feb-14 19:00N 16°12' W 061°32'0 0.0
2018-Feb-14 16:15N 16°12' W 061°32'0 0.0
2018-Feb-14 11:18N 16°12' W 061°32'0 0.0
2018-Feb-14 00:53N 16°12' W 061°32'1 3.3
2018-Feb-14 00:29N 16°13' W 061°32'1 2.1
2018-Feb-14 00:00N 16°14' W 061°33'0 0.0
2018-Feb-13 02:34N 16°14' W 061°33'0 0.0
2018-Feb-13 02:29N 16°14' W 061°33'1 1.2
2018-Feb-13 02:00N 16°14' W 061°32'2 0.2
2018-Feb-12 18:44N 16°12' W 061°33'0 0.0
2018-Feb-12 18:23N 16°12' W 061°33'0 0.0
2018-Feb-12 17:56N 16°12' W 061°33'0 0.0
2018-Feb-12 15:07N 16°12' W 061°33'0 0.0
2018-Feb-12 13:49N 16°12' W 061°33'  
Track history (hours):
 
Tides and Currents Weather Stations Pressure Air Temp Water Temp Dewpoint Dewpoint Depression Visibility Wind Speed Wind Dir Waves Ship Positions

Arianta

Last reported at 2018-Feb-22 00:54 UTC. Time now 2018-Feb-22 03:09 UTC.
Position N 14°34' W 061°06'.

Length 140 m; draft 6.5 m.

Type: Ship. MMSI: 232698000.

Date/timePositionNaut miles runAvg speedWind from/ knotsBaromVisibWave heightAir tempDewpointWater temp
2018-Feb-22 00:54N 14°34' W 061°06'510.0
2018-Feb-22 00:26N 14°35' W 061°11'710.0
2018-Feb-21 23:42N 14°39' W 061°17'128 9.3
2018-Feb-21 09:55N 16°09' W 062°51'  
2018-Feb-17 01:44N 16°57' W 063°30'56 9.6
2018-Feb-16 19:58N 16°28' W 062°41'7 9.9
2018-Feb-16 19:16N 16°25' W 062°34'3 9.8
2018-Feb-16 18:59N 16°23' W 062°32'48 9.3
2018-Feb-16 13:46N 15°59' W 061°49'310.3
2018-Feb-16 13:30N 15°57' W 061°46'10 9.9
2018-Feb-16 12:29N 15°57' W 061°36'14 8.3
2018-Feb-16 10:48N 16°10' W 061°31'2 6.0
2018-Feb-16 10:30N 16°11' W 061°32'1 1.0
2018-Feb-16 09:22N 16°12' W 061°32'0 0.2
2018-Feb-16 08:58N 16°12' W 061°32'0 0.0
2018-Feb-16 02:22N 16°12' W 061°32'0 0.0
2018-Feb-15 22:18N 16°12' W 061°32'0 0.0
2018-Feb-15 21:57N 16°12' W 061°32'0 0.0
2018-Feb-15 20:24N 16°12' W 061°32'0 0.0
2018-Feb-15 19:57N 16°12' W 061°32'0 0.0
2018-Feb-15 07:06N 16°12' W 061°32'0 0.0
2018-Feb-15 06:18N 16°12' W 061°32'0 0.0
2018-Feb-14 19:39N 16°12' W 061°32'0 0.0
2018-Feb-14 19:06N 16°12' W 061°32'0 0.1
2018-Feb-14 19:00N 16°12' W 061°32'0 0.0
2018-Feb-14 16:15N 16°12' W 061°32'0 0.0
2018-Feb-14 11:18N 16°12' W 061°32'0 0.0
2018-Feb-14 00:53N 16°12' W 061°32'1 3.3
2018-Feb-14 00:29N 16°13' W 061°32'1 2.1
2018-Feb-14 00:00N 16°14' W 061°33'0 0.0
2018-Feb-13 02:34N 16°14' W 061°33'0 0.0
2018-Feb-13 02:29N 16°14' W 061°33'1 1.2
2018-Feb-13 02:00N 16°14' W 061°32'2 0.2
2018-Feb-12 18:44N 16°12' W 061°33'0 0.0
2018-Feb-12 18:23N 16°12' W 061°33'0 0.0
2018-Feb-12 17:56N 16°12' W 061°33'0 0.0
2018-Feb-12 15:07N 16°12' W 061°33'0 0.0
2018-Feb-12 13:49N 16°12' W 061°33'  

Dump ship's entire track history